createdAt,value
2023-04-03T00:00:26.439Z,1017.53
2023-04-03T00:01:26.440Z,1017.56
2023-04-03T00:02:26.508Z,1017.58
2023-04-03T00:03:26.414Z,1017.56
2023-04-03T00:04:26.425Z,1017.56
2023-04-03T00:05:26.380Z,1017.57
2023-04-03T00:06:26.369Z,1017.56
2023-04-03T00:07:26.391Z,1017.56
2023-04-03T00:08:26.349Z,1017.56
2023-04-03T00:09:26.343Z,1017.56
2023-04-03T00:10:26.362Z,1017.59
2023-04-03T00:11:26.344Z,1017.58
2023-04-03T00:12:26.337Z,1017.61
2023-04-03T00:13:26.317Z,1017.60
2023-04-03T00:14:26.283Z,1017.60
2023-04-03T00:15:26.295Z,1017.59
2023-04-03T00:16:26.272Z,1017.60
2023-04-03T00:17:26.300Z,1017.61
2023-04-03T00:18:26.267Z,1017.62
2023-04-03T00:19:26.294Z,1017.63
2023-04-03T00:20:26.223Z,1017.63
2023-04-03T00:21:26.249Z,1017.63
2023-04-03T00:22:27.607Z,1017.64
2023-04-03T00:23:26.202Z,1017.63
2023-04-03T00:24:26.199Z,1017.63
2023-04-03T00:25:26.201Z,1017.63
2023-04-03T00:26:26.172Z,1017.65
2023-04-03T00:27:26.221Z,1017.64
2023-04-03T00:28:26.552Z,1017.67
2023-04-03T00:29:26.137Z,1017.66
2023-04-03T00:30:26.134Z,1017.69
2023-04-03T00:31:26.161Z,1017.68
2023-04-03T00:32:26.139Z,1017.66
2023-04-03T00:33:26.103Z,1017.64
2023-04-03T00:34:26.085Z,1017.63
2023-04-03T00:35:26.145Z,1017.65
2023-04-03T00:36:26.118Z,1017.65
2023-04-03T00:37:26.078Z,1017.65
2023-04-03T00:38:26.069Z,1017.64
2023-04-03T00:39:26.057Z,1017.63
2023-04-03T00:40:26.030Z,1017.64
2023-04-03T00:41:26.021Z,1017.65
2023-04-03T00:42:26.068Z,1017.63
2023-04-03T00:43:25.998Z,1017.65
2023-04-03T00:44:26.014Z,1017.67
2023-04-03T00:45:25.990Z,1017.68
2023-04-03T00:46:25.993Z,1017.68
2023-04-03T00:47:26.103Z,1017.69
2023-04-03T00:48:26.229Z,1017.70
2023-04-03T00:49:25.937Z,1017.71
2023-04-03T00:50:25.954Z,1017.73
2023-04-03T00:51:25.929Z,1017.74
2023-04-03T00:52:25.934Z,1017.75
2023-04-03T00:53:25.901Z,1017.77
2023-04-03T00:54:28.072Z,1017.76
2023-04-03T00:55:25.878Z,1017.76
2023-04-03T00:56:25.864Z,1017.74
2023-04-03T00:57:25.943Z,1017.75
2023-04-03T00:58:25.872Z,1017.75
2023-04-03T00:59:25.847Z,1017.75
2023-04-03T01:00:25.822Z,1017.74
2023-04-03T01:01:25.877Z,1017.75
2023-04-03T01:02:25.907Z,1017.73
2023-04-03T01:03:25.806Z,1017.71
2023-04-03T01:04:25.830Z,1017.72
2023-04-03T01:05:25.784Z,1017.72
2023-04-03T01:06:25.781Z,1017.71
2023-04-03T01:07:25.793Z,1017.71
2023-04-03T01:08:25.744Z,1017.72
2023-04-03T01:09:25.745Z,1017.71
2023-04-03T01:10:25.719Z,1017.71
2023-04-03T01:11:25.729Z,1017.69
2023-04-03T01:12:25.749Z,1017.69
2023-04-03T01:13:25.747Z,1017.70
2023-04-03T01:14:25.683Z,1017.69
2023-04-03T01:15:25.690Z,1017.69
2023-04-03T01:16:25.757Z,1017.71
2023-04-03T01:17:25.720Z,1017.73
2023-04-03T01:18:25.659Z,1017.73
2023-04-03T01:19:25.650Z,1017.72
2023-04-03T01:20:25.624Z,1017.72
2023-04-03T01:21:25.632Z,1017.72
2023-04-03T01:22:25.631Z,1017.74
2023-04-03T01:23:25.596Z,1017.73
2023-04-03T01:24:25.605Z,1017.72
2023-04-03T01:25:25.591Z,1017.72
2023-04-03T01:26:25.590Z,1017.73
2023-04-03T01:27:25.640Z,1017.72
2023-04-03T01:28:25.555Z,1017.72
2023-04-03T01:29:25.540Z,1017.72
2023-04-03T01:30:25.516Z,1017.73
2023-04-03T01:31:25.560Z,1017.73
2023-04-03T01:32:25.583Z,1017.75
2023-04-03T01:33:25.551Z,1017.77
2023-04-03T01:34:25.501Z,1017.79
2023-04-03T01:35:25.483Z,1017.76
2023-04-03T01:36:25.480Z,1017.77
2023-04-03T01:37:25.481Z,1017.78
2023-04-03T01:38:25.487Z,1017.76
2023-04-03T01:39:25.457Z,1017.76
2023-04-03T01:40:25.434Z,1017.77
2023-04-03T01:41:25.438Z,1017.78
2023-04-03T01:42:25.460Z,1017.78
2023-04-03T01:43:25.997Z,1017.79
2023-04-03T01:44:25.393Z,1017.81
2023-04-03T01:45:25.396Z,1017.83
2023-04-03T01:46:25.392Z,1017.85
2023-04-03T01:47:25.468Z,1017.87
2023-04-03T01:48:25.358Z,1017.84
2023-04-03T01:49:25.352Z,1017.84
2023-04-03T01:50:25.329Z,1017.85
2023-04-03T01:51:25.328Z,1017.85
2023-04-03T01:52:25.339Z,1017.87
2023-04-03T01:53:25.327Z,1017.89
2023-04-03T01:54:25.278Z,1017.92
2023-04-03T01:55:25.288Z,1017.92
2023-04-03T01:56:25.266Z,1017.94
2023-04-03T01:57:25.618Z,1017.97
2023-04-03T01:58:25.257Z,1017.98
2023-04-03T01:59:25.244Z,1017.99
2023-04-03T02:00:25.210Z,1017.96
2023-04-03T02:01:25.280Z,1017.96
2023-04-03T02:02:25.201Z,1017.95
2023-04-03T02:03:25.218Z,1017.97
2023-04-03T02:04:25.256Z,1017.99
2023-04-03T02:05:25.190Z,1017.99
2023-04-03T02:06:25.166Z,1017.99
2023-04-03T02:07:25.140Z,1017.97
2023-04-03T02:08:25.153Z,1017.97
2023-04-03T02:09:25.121Z,1017.98
2023-04-03T02:10:25.107Z,1017.99
2023-04-03T02:11:25.125Z,1018.02
2023-04-03T02:12:25.103Z,1017.99
2023-04-03T02:13:25.128Z,1017.99
2023-04-03T02:14:25.122Z,1017.97
2023-04-03T02:15:25.073Z,1017.96
2023-04-03T02:16:25.115Z,1017.98
2023-04-03T02:17:25.118Z,1017.96
2023-04-03T02:18:25.052Z,1017.97
2023-04-03T02:19:25.048Z,1018.00
2023-04-03T02:20:25.019Z,1017.98
2023-04-03T02:21:25.015Z,1017.97
2023-04-03T02:22:24.993Z,1017.97
2023-04-03T02:23:26.881Z,1017.99
2023-04-03T02:24:24.971Z,1017.98
2023-04-03T02:25:25.001Z,1017.98
2023-04-03T02:26:24.966Z,1017.99
2023-04-03T02:27:24.952Z,1017.96
2023-04-03T02:28:24.985Z,1017.99
2023-04-03T02:29:25.122Z,1017.97
2023-04-03T02:30:24.919Z,1017.98
2023-04-03T02:31:25.013Z,1017.98
2023-04-03T02:32:24.926Z,1017.96
2023-04-03T02:33:24.937Z,1017.97
2023-04-03T02:34:25.145Z,1017.95
2023-04-03T02:35:24.967Z,1017.94
2023-04-03T02:36:24.911Z,1017.98
2023-04-03T02:37:24.866Z,1018.00
2023-04-03T02:38:24.870Z,1018.02
2023-04-03T02:39:24.845Z,1018.02
2023-04-03T02:40:24.844Z,1018.04
2023-04-03T02:41:24.841Z,1018.05
2023-04-03T02:42:24.818Z,1018.06
2023-04-03T02:43:24.841Z,1018.05
2023-04-03T02:44:24.826Z,1018.06
2023-04-03T02:45:24.784Z,1018.08
2023-04-03T02:46:24.835Z,1018.08
2023-04-03T02:47:24.786Z,1018.07
2023-04-03T02:48:24.803Z,1018.06
2023-04-03T02:49:24.744Z,1018.08
2023-04-03T02:50:24.735Z,1018.07
2023-04-03T02:51:45.775Z,1018.08
2023-04-03T02:52:24.706Z,1018.09
2023-04-03T02:53:24.750Z,1018.11
2023-04-03T02:54:24.726Z,1018.13
2023-04-03T02:55:24.681Z,1018.10
2023-04-03T02:56:24.664Z,1018.10
2023-04-03T02:57:24.749Z,1018.11
2023-04-03T02:58:24.681Z,1018.09
2023-04-03T02:59:24.655Z,1018.11
2023-04-03T03:00:24.664Z,1018.13
2023-04-03T03:01:24.699Z,1018.15
2023-04-03T03:02:24.714Z,1018.14
2023-04-03T03:03:24.640Z,1018.14
2023-04-03T03:04:24.612Z,1018.13
2023-04-03T03:05:24.611Z,1018.13
2023-04-03T03:06:24.593Z,1018.12
2023-04-03T03:07:24.578Z,1018.12
2023-04-03T03:08:24.560Z,1018.11
2023-04-03T03:09:24.596Z,1018.10
2023-04-03T03:10:24.541Z,1018.09
2023-04-03T03:11:24.523Z,1018.08
2023-04-03T03:12:24.540Z,1018.08
2023-04-03T03:13:24.529Z,1018.08
2023-04-03T03:14:24.534Z,1018.08
2023-04-03T03:15:24.488Z,1018.06
2023-04-03T03:16:24.606Z,1018.07
2023-04-03T03:17:24.533Z,1018.05
2023-04-03T03:18:24.453Z,1018.04
2023-04-03T03:19:24.473Z,1018.02
2023-04-03T03:20:24.434Z,1018.03
2023-04-03T03:21:24.434Z,1018.04
2023-04-03T03:22:24.428Z,1018.08
2023-04-03T03:23:24.423Z,1018.07
2023-04-03T03:24:24.450Z,1018.07
2023-04-03T03:25:24.421Z,1018.07
2023-04-03T03:26:24.381Z,1018.07
2023-04-03T03:27:24.364Z,1018.06
2023-04-03T03:28:24.359Z,1018.06
2023-04-03T03:29:24.384Z,1018.06
2023-04-03T03:30:24.336Z,1018.05
2023-04-03T03:31:24.384Z,1018.06
2023-04-03T03:32:24.383Z,1018.07
2023-04-03T03:33:24.308Z,1018.06
2023-04-03T03:34:24.312Z,1018.06
2023-04-03T03:35:24.306Z,1018.06
2023-04-03T03:36:24.378Z,1018.07
2023-04-03T03:37:24.283Z,1018.09
2023-04-03T03:38:24.249Z,1018.09
2023-04-03T03:39:24.289Z,1018.10
2023-04-03T03:40:24.251Z,1018.09
2023-04-03T03:41:24.422Z,1018.11
2023-04-03T03:42:24.212Z,1018.10
2023-04-03T03:43:24.215Z,1018.11
2023-04-03T03:44:28.237Z,1018.14
2023-04-03T03:45:24.193Z,1018.14
2023-04-03T03:46:24.193Z,1018.15
2023-04-03T03:47:24.193Z,1018.12
2023-04-03T03:48:24.163Z,1018.14
2023-04-03T03:49:24.199Z,1018.17
2023-04-03T03:50:24.136Z,1018.16
2023-04-03T03:51:24.139Z,1018.17
2023-04-03T03:52:24.146Z,1018.18
2023-04-03T03:53:24.103Z,1018.19
2023-04-03T03:54:24.150Z,1018.18
2023-04-03T03:55:24.131Z,1018.19
2023-04-03T03:56:24.076Z,1018.19
2023-04-03T03:57:24.146Z,1018.19
2023-04-03T03:58:24.065Z,1018.20
2023-04-03T03:59:24.095Z,1018.17
2023-04-03T04:00:24.051Z,1018.17
2023-04-03T04:01:24.116Z,1018.16
2023-04-03T04:02:24.138Z,1018.19
2023-04-03T04:03:24.180Z,1018.19
2023-04-03T04:04:24.053Z,1018.21
2023-04-03T04:05:24.000Z,1018.21
2023-04-03T04:06:24.126Z,1018.18
2023-04-03T04:07:23.989Z,1018.23
2023-04-03T04:08:23.959Z,1018.21
2023-04-03T04:09:23.998Z,1018.22
2023-04-03T04:10:23.944Z,1018.26
2023-04-03T04:11:24.064Z,1018.26
2023-04-03T04:12:23.918Z,1018.29
2023-04-03T04:13:23.908Z,1018.27
2023-04-03T04:14:23.927Z,1018.28
2023-04-03T04:15:24.025Z,1018.30
2023-04-03T04:16:23.933Z,1018.30
2023-04-03T04:17:23.955Z,1018.32
2023-04-03T04:18:23.911Z,1018.30
2023-04-03T04:19:23.877Z,1018.32
2023-04-03T04:20:23.848Z,1018.32
2023-04-03T04:21:23.900Z,1018.31
2023-04-03T04:22:23.826Z,1018.31
2023-04-03T04:23:24.870Z,1018.29
2023-04-03T04:24:24.724Z,1018.31
2023-04-03T04:25:23.805Z,1018.31
2023-04-03T04:26:23.800Z,1018.31
2023-04-03T04:27:25.017Z,1018.32
2023-04-03T04:28:23.721Z,1018.36
2023-04-03T04:29:23.835Z,1018.36
2023-04-03T04:30:25.654Z,1018.36
2023-04-03T04:31:23.703Z,1018.36
2023-04-03T04:32:23.668Z,1018.40
2023-04-03T04:33:23.697Z,1018.40
2023-04-03T04:34:23.687Z,1018.40
2023-04-03T04:35:23.695Z,1018.44
2023-04-03T04:36:23.774Z,1018.44
2023-04-03T04:37:23.704Z,1018.47
2023-04-03T04:38:23.733Z,1018.48
2023-04-03T04:39:23.664Z,1018.51
2023-04-03T04:40:23.663Z,1018.49
2023-04-03T04:41:23.580Z,1018.50
2023-04-03T04:42:23.576Z,1018.50
2023-04-03T04:43:23.617Z,1018.54
2023-04-03T04:44:23.537Z,1018.53
2023-04-03T04:45:23.591Z,1018.56
2023-04-03T04:46:23.567Z,1018.57
2023-04-03T04:47:23.544Z,1018.56
2023-04-03T04:48:23.524Z,1018.56
2023-04-03T04:49:23.519Z,1018.54
2023-04-03T04:50:23.598Z,1018.55
2023-04-03T04:51:23.481Z,1018.55
2023-04-03T04:52:23.461Z,1018.58
2023-04-03T04:53:23.454Z,1018.59
2023-04-03T04:54:23.443Z,1018.58
2023-04-03T04:55:23.474Z,1018.60
2023-04-03T04:56:23.421Z,1018.59
2023-04-03T04:57:23.462Z,1018.60
2023-04-03T04:58:23.392Z,1018.60
2023-04-03T04:59:23.404Z,1018.64
2023-04-03T05:00:23.413Z,1018.66
2023-04-03T05:01:23.401Z,1018.64
2023-04-03T05:02:23.390Z,1018.66
2023-04-03T05:03:23.380Z,1018.65
2023-04-03T05:04:29.841Z,1018.66
2023-04-03T05:05:31.233Z,1018.66
2023-04-03T05:06:23.311Z,1018.67
2023-04-03T05:07:29.802Z,1018.66
2023-04-03T05:08:23.296Z,1018.69
2023-04-03T05:09:23.302Z,1018.71
2023-04-03T05:10:23.341Z,1018.72
2023-04-03T05:11:25.164Z,1018.73
2023-04-03T05:12:23.277Z,1018.78
2023-04-03T05:13:23.277Z,1018.76
2023-04-03T05:14:23.240Z,1018.80
2023-04-03T05:15:23.258Z,1018.82
2023-04-03T05:16:23.633Z,1018.84
2023-04-03T05:17:23.246Z,1018.84
2023-04-03T05:18:23.212Z,1018.86
2023-04-03T05:19:23.192Z,1018.90
2023-04-03T05:20:23.207Z,1018.87
2023-04-03T05:21:23.216Z,1018.89
2023-04-03T05:22:23.197Z,1018.91
2023-04-03T05:23:23.171Z,1018.92
2023-04-03T05:24:23.172Z,1018.93
2023-04-03T05:25:23.160Z,1018.96
2023-04-03T05:26:23.124Z,1018.95
2023-04-03T05:27:23.120Z,1018.98
2023-04-03T05:28:23.095Z,1018.97
2023-04-03T05:29:23.097Z,1019.00
2023-04-03T05:30:24.262Z,1018.99
2023-04-03T05:31:23.135Z,1019.02
2023-04-03T05:32:23.183Z,1019.00
2023-04-03T05:33:23.064Z,1019.01
2023-04-03T05:34:23.124Z,1018.99
2023-04-03T05:35:23.071Z,1019.00
2023-04-03T05:36:23.395Z,1019.00
2023-04-03T05:37:23.047Z,1018.99
2023-04-03T05:38:22.997Z,1019.00
2023-04-03T05:39:25.490Z,1019.01
2023-04-03T05:40:23.006Z,1019.01
2023-04-03T05:41:23.004Z,1019.04
2023-04-03T05:42:22.974Z,1019.05
2023-04-03T05:43:22.984Z,1019.04
2023-04-03T05:44:22.944Z,1019.09
2023-04-03T05:45:22.964Z,1019.08
2023-04-03T05:46:23.111Z,1019.08
2023-04-03T05:47:22.917Z,1019.13
2023-04-03T05:48:22.958Z,1019.12
2023-04-03T05:49:22.892Z,1019.13
2023-04-03T05:50:22.909Z,1019.16
2023-04-03T05:51:22.921Z,1019.18
2023-04-03T05:52:22.849Z,1019.16
2023-04-03T05:53:23.374Z,1019.16
2023-04-03T05:54:22.866Z,1019.16
2023-04-03T05:55:22.864Z,1019.18
2023-04-03T05:56:22.837Z,1019.16
2023-04-03T05:57:22.912Z,1019.14
2023-04-03T05:58:22.815Z,1019.12
2023-04-03T05:59:22.791Z,1019.14
2023-04-03T06:00:22.765Z,1019.15
2023-04-03T06:01:22.815Z,1019.14
2023-04-03T06:02:22.821Z,1019.15
2023-04-03T06:03:22.835Z,1019.16
2023-04-03T06:04:22.883Z,1019.16
2023-04-03T06:05:22.734Z,1019.17
2023-04-03T06:06:22.756Z,1019.16
2023-04-03T06:07:22.716Z,1019.16
2023-04-03T06:08:22.711Z,1019.17
2023-04-03T06:09:22.723Z,1019.16
2023-04-03T06:10:22.687Z,1019.15
2023-04-03T06:11:22.746Z,1019.16
2023-04-03T06:12:22.729Z,1019.18
2023-04-03T06:13:22.693Z,1019.22
2023-04-03T06:14:22.681Z,1019.22
2023-04-03T06:15:22.632Z,1019.18
2023-04-03T06:16:22.768Z,1019.22
2023-04-03T06:17:22.798Z,1019.20
2023-04-03T06:18:22.584Z,1019.24
2023-04-03T06:19:22.596Z,1019.24
2023-04-03T06:20:22.614Z,1019.28
2023-04-03T06:21:22.597Z,1019.27
2023-04-03T06:22:22.726Z,1019.27
2023-04-03T06:23:22.618Z,1019.30
2023-04-03T06:24:22.531Z,1019.31
2023-04-03T06:25:22.530Z,1019.33
2023-04-03T06:26:22.539Z,1019.33
2023-04-03T06:27:22.514Z,1019.34
2023-04-03T06:28:22.835Z,1019.37
2023-04-03T06:29:22.539Z,1019.37
2023-04-03T06:30:22.506Z,1019.37
2023-04-03T06:31:22.878Z,1019.38
2023-04-03T06:32:22.487Z,1019.37
2023-04-03T06:33:22.448Z,1019.36
2023-04-03T06:34:24.777Z,1019.34
2023-04-03T06:35:22.462Z,1019.35
2023-04-03T06:36:22.433Z,1019.32
2023-04-03T06:37:22.408Z,1019.32
2023-04-03T06:38:22.404Z,1019.33
2023-04-03T06:39:22.396Z,1019.32
2023-04-03T06:40:22.391Z,1019.30
2023-04-03T06:41:22.616Z,1019.35
2023-04-03T06:42:22.379Z,1019.31
2023-04-03T06:43:24.013Z,1019.34
2023-04-03T06:44:22.413Z,1019.36
2023-04-03T06:45:22.333Z,1019.36
2023-04-03T06:46:22.387Z,1019.36
2023-04-03T06:47:22.317Z,1019.40
2023-04-03T06:48:22.294Z,1019.43
2023-04-03T06:49:22.283Z,1019.43
2023-04-03T06:50:22.306Z,1019.48
2023-04-03T06:51:22.410Z,1019.46
2023-04-03T06:52:22.258Z,1019.45
2023-04-03T06:53:22.258Z,1019.43
2023-04-03T06:54:22.261Z,1019.49
2023-04-03T06:55:22.230Z,1019.49
2023-04-03T06:56:22.262Z,1019.50
2023-04-03T06:57:22.258Z,1019.52
2023-04-03T06:58:23.207Z,1019.55
2023-04-03T06:59:22.220Z,1019.57
2023-04-03T07:00:22.229Z,1019.58
2023-04-03T07:01:22.223Z,1019.60
2023-04-03T07:02:22.206Z,1019.57
2023-04-03T07:03:22.162Z,1019.58
2023-04-03T07:04:22.169Z,1019.57
2023-04-03T07:05:22.184Z,1019.58
2023-04-03T07:06:22.206Z,1019.62
2023-04-03T07:07:22.130Z,1019.64
2023-04-03T07:08:22.089Z,1019.65
2023-04-03T07:09:22.148Z,1019.66
2023-04-03T07:10:22.113Z,1019.70
2023-04-03T07:11:22.074Z,1019.71
2023-04-03T07:12:22.098Z,1019.67
2023-04-03T07:13:22.071Z,1019.68
2023-04-03T07:14:22.078Z,1019.66
2023-04-03T07:15:22.063Z,1019.69
2023-04-03T07:16:22.020Z,1019.67
2023-04-03T07:17:22.045Z,1019.71
2023-04-03T07:18:22.002Z,1019.73
2023-04-03T07:19:21.982Z,1019.74
2023-04-03T07:20:21.969Z,1019.75
2023-04-03T07:21:21.961Z,1019.77
2023-04-03T07:22:22.131Z,1019.80
2023-04-03T07:23:21.946Z,1019.80
2023-04-03T07:24:21.958Z,1019.83
2023-04-03T07:25:21.939Z,1019.81
2023-04-03T07:26:21.905Z,1019.82
2023-04-03T07:27:22.116Z,1019.87
2023-04-03T07:28:21.888Z,1019.84
2023-04-03T07:29:21.880Z,1019.84
2023-04-03T07:30:21.908Z,1019.84
2023-04-03T07:31:21.969Z,1019.85
2023-04-03T07:32:21.890Z,1019.87
2023-04-03T07:33:21.858Z,1019.83
2023-04-03T07:34:21.949Z,1019.82
2023-04-03T07:35:21.832Z,1019.83
2023-04-03T07:36:21.931Z,1019.86
2023-04-03T07:37:23.891Z,1019.85
2023-04-03T07:38:21.796Z,1019.86
2023-04-03T07:39:21.778Z,1019.85
2023-04-03T07:40:21.789Z,1019.87
2023-04-03T07:41:21.764Z,1019.87
2023-04-03T07:42:21.775Z,1019.88
2023-04-03T07:43:21.736Z,1019.86
2023-04-03T07:44:21.722Z,1019.91
2023-04-03T07:45:21.713Z,1019.94
2023-04-03T07:46:21.954Z,1019.88
2023-04-03T07:47:21.781Z,1019.87
2023-04-03T07:48:23.293Z,1019.91
2023-04-03T07:49:21.679Z,1019.94
2023-04-03T07:50:21.811Z,1019.91
2023-04-03T07:51:21.646Z,1019.95
2023-04-03T07:52:21.700Z,1019.90
2023-04-03T07:53:21.689Z,1019.92
2023-04-03T07:54:21.638Z,1019.93
2023-04-03T07:55:21.606Z,1019.94
2023-04-03T07:56:21.630Z,1019.92
2023-04-03T07:57:21.688Z,1019.93
2023-04-03T07:58:21.625Z,1019.99
2023-04-03T07:59:21.700Z,1019.94
2023-04-03T08:00:21.586Z,1019.97
2023-04-03T08:01:21.568Z,1019.99
2023-04-03T08:02:21.600Z,1019.97
2023-04-03T08:03:21.625Z,1020.02
2023-04-03T08:04:21.608Z,1020.02
2023-04-03T08:05:21.507Z,1020.07
2023-04-03T08:06:29.391Z,1020.03
2023-04-03T08:07:21.522Z,1020.03
2023-04-03T08:08:21.700Z,1020.03
2023-04-03T08:09:21.477Z,1020.02
2023-04-03T08:10:21.514Z,1020.02
2023-04-03T08:11:21.443Z,1019.98
2023-04-03T08:12:21.473Z,1020.04
2023-04-03T08:13:21.452Z,1020.06
2023-04-03T08:14:21.478Z,1020.06
2023-04-03T08:15:21.439Z,1020.08
2023-04-03T08:16:21.461Z,1020.08
2023-04-03T08:17:21.430Z,1020.10
2023-04-03T08:18:21.404Z,1020.06
2023-04-03T08:20:21.495Z,1020.04
2023-04-03T08:21:21.357Z,1020.01
2023-04-03T08:22:21.336Z,1020.03
2023-04-03T08:23:21.691Z,1020.02
2023-04-03T08:24:21.331Z,1020.00
2023-04-03T08:25:21.298Z,1019.99
2023-04-03T08:26:21.300Z,1020.01
2023-04-03T08:27:21.368Z,1019.99
2023-04-03T08:28:21.310Z,1020.00
2023-04-03T08:29:21.298Z,1019.98
2023-04-03T08:30:21.367Z,1020.01
2023-04-03T08:31:21.826Z,1020.02
2023-04-03T08:32:21.261Z,1020.05
2023-04-03T08:33:21.279Z,1020.03
2023-04-03T08:34:21.232Z,1020.04
2023-04-03T08:35:21.272Z,1020.03
2023-04-03T08:36:21.281Z,1020.04
2023-04-03T08:37:21.189Z,1020.10
2023-04-03T08:38:21.232Z,1020.09
2023-04-03T08:39:21.172Z,1020.15
2023-04-03T08:40:21.231Z,1020.09
2023-04-03T08:41:21.171Z,1020.06
2023-04-03T08:42:21.130Z,1020.10
2023-04-03T08:43:21.168Z,1020.06
2023-04-03T08:44:21.141Z,1020.07
2023-04-03T08:45:21.107Z,1020.07
2023-04-03T08:46:21.180Z,1020.06
2023-04-03T08:47:21.117Z,1020.03
2023-04-03T08:48:21.116Z,1020.07
2023-04-03T08:49:21.112Z,1020.09
2023-04-03T08:50:21.138Z,1020.05
2023-04-03T08:51:21.052Z,1020.08
2023-04-03T08:52:21.035Z,1020.09
2023-04-03T08:53:21.040Z,1020.05
2023-04-03T08:54:21.055Z,1020.04
2023-04-03T08:55:20.994Z,1020.07
2023-04-03T08:56:21.019Z,1020.07
2023-04-03T08:57:20.995Z,1020.09
2023-04-03T08:58:21.035Z,1020.08
2023-04-03T08:59:20.966Z,1020.04
2023-04-03T09:00:21.065Z,1020.06
2023-04-03T09:01:20.951Z,1020.10
2023-04-03T09:02:20.935Z,1020.05
2023-04-03T09:03:21.024Z,1020.05
2023-04-03T09:04:21.817Z,1020.06
2023-04-03T09:05:20.924Z,1020.09
2023-04-03T09:06:20.902Z,1020.04
2023-04-03T09:07:20.878Z,1020.04
2023-04-03T09:08:20.897Z,1020.06
2023-04-03T09:09:20.852Z,1020.09
2023-04-03T09:10:20.863Z,1020.05
2023-04-03T09:11:20.873Z,1020.05
2023-04-03T09:12:20.834Z,1020.08
2023-04-03T09:13:20.837Z,1020.07
2023-04-03T09:14:20.832Z,1020.12
2023-04-03T09:15:31.226Z,1020.09
2023-04-03T09:16:20.828Z,1020.12
2023-04-03T09:17:20.782Z,1020.12
2023-04-03T09:18:21.070Z,1020.14
2023-04-03T09:19:20.829Z,1020.13
2023-04-03T09:20:21.204Z,1020.11
2023-04-03T09:21:20.736Z,1020.14
2023-04-03T09:22:20.728Z,1020.08
2023-04-03T09:23:20.759Z,1020.09
2023-04-03T09:24:20.737Z,1020.13
2023-04-03T09:25:20.702Z,1020.15
2023-04-03T09:26:20.688Z,1020.13
2023-04-03T09:27:20.704Z,1020.18
2023-04-03T09:28:20.705Z,1020.15
2023-04-03T09:29:20.657Z,1020.07
2023-04-03T09:30:20.707Z,1020.09
2023-04-03T09:31:20.722Z,1020.09
2023-04-03T09:32:20.613Z,1020.08
2023-04-03T09:33:20.618Z,1020.08
2023-04-03T09:34:20.618Z,1020.04
2023-04-03T09:35:25.234Z,1020.07
2023-04-03T09:36:20.620Z,1020.04
2023-04-03T09:37:20.567Z,1020.02
2023-04-03T09:38:20.570Z,1020.11
2023-04-03T09:39:20.594Z,1020.08
2023-04-03T09:40:20.538Z,1020.10
2023-04-03T09:41:20.520Z,1020.07
2023-04-03T09:42:20.532Z,1020.00
2023-04-03T09:43:20.570Z,1020.04
2023-04-03T09:44:20.527Z,1020.04
2023-04-03T09:45:20.485Z,1020.01
2023-04-03T09:46:26.997Z,1020.06
2023-04-03T09:47:27.007Z,1020.03
2023-04-03T09:48:28.261Z,1020.07
2023-04-03T09:49:20.440Z,1020.11
2023-04-03T09:50:20.429Z,1020.08
2023-04-03T09:51:20.447Z,1020.09
2023-04-03T09:52:20.410Z,1020.06
2023-04-03T09:53:20.413Z,1020.09
2023-04-03T09:54:20.473Z,1020.09
2023-04-03T09:55:20.392Z,1020.10
2023-04-03T09:56:20.418Z,1020.07
2023-04-03T09:57:20.346Z,1020.14
2023-04-03T09:58:20.351Z,1020.09
2023-04-03T09:59:20.377Z,1020.07
2023-04-03T10:00:20.331Z,1020.03
2023-04-03T10:01:20.339Z,1020.00
2023-04-03T10:02:20.311Z,1019.98
2023-04-03T10:03:20.316Z,1020.00
2023-04-03T10:04:20.335Z,1019.97
2023-04-03T10:05:20.341Z,1020.02
2023-04-03T10:06:20.272Z,1019.97
2023-04-03T10:07:20.251Z,1020.02
2023-04-03T10:08:20.254Z,1019.98
2023-04-03T10:09:20.280Z,1019.95
2023-04-03T10:10:20.285Z,1019.99
2023-04-03T10:11:20.246Z,1019.90
2023-04-03T10:12:20.251Z,1019.97
2023-04-03T10:13:21.419Z,1020.05
2023-04-03T10:14:20.242Z,1019.93
2023-04-03T10:15:21.253Z,1019.94
2023-04-03T10:16:20.196Z,1019.92
2023-04-03T10:17:20.153Z,1019.92
2023-04-03T10:18:24.377Z,1019.95
2023-04-03T10:19:20.155Z,1019.91
2023-04-03T10:20:21.268Z,1019.95
2023-04-03T10:21:27.102Z,1019.93
2023-04-03T10:22:20.117Z,1019.91
2023-04-03T10:23:20.095Z,1019.95
2023-04-03T10:24:20.125Z,1019.91
2023-04-03T10:25:20.066Z,1019.92
2023-04-03T10:26:20.058Z,1019.94
2023-04-03T10:27:20.056Z,1019.91
2023-04-03T10:28:20.039Z,1019.88
2023-04-03T10:29:20.057Z,1019.83
2023-04-03T10:30:20.046Z,1019.87
2023-04-03T10:31:20.054Z,1019.81
2023-04-03T10:32:20.008Z,1019.81
2023-04-03T10:33:19.993Z,1019.80
2023-04-03T10:34:20.021Z,1019.81
2023-04-03T10:35:19.985Z,1019.76
2023-04-03T10:36:19.976Z,1019.74
2023-04-03T10:37:19.975Z,1019.73
2023-04-03T10:38:19.953Z,1019.75
2023-04-03T10:39:19.951Z,1019.69
2023-04-03T10:40:19.965Z,1019.66
2023-04-03T10:41:19.935Z,1019.69
2023-04-03T10:42:19.908Z,1019.72
2023-04-03T10:43:19.885Z,1019.73
2023-04-03T10:44:19.918Z,1019.71
2023-04-03T10:45:19.883Z,1019.74
2023-04-03T10:46:20.029Z,1019.72
2023-04-03T10:47:19.877Z,1019.73
2023-04-03T10:48:19.922Z,1019.73
2023-04-03T10:49:19.856Z,1019.71
2023-04-03T10:50:19.812Z,1019.77
2023-04-03T10:51:19.818Z,1019.72
2023-04-03T10:52:19.803Z,1019.68
2023-04-03T10:53:19.816Z,1019.64
2023-04-03T10:54:19.777Z,1019.59
2023-04-03T10:55:19.793Z,1019.61
2023-04-03T10:56:19.767Z,1019.57
2023-04-03T10:57:19.788Z,1019.53
2023-04-03T10:58:19.736Z,1019.55
2023-04-03T10:59:19.800Z,1019.52
2023-04-03T11:00:19.748Z,1019.53
2023-04-03T11:01:19.757Z,1019.55
2023-04-03T11:02:19.734Z,1019.57
2023-04-03T11:03:19.750Z,1019.51
2023-04-03T11:04:19.691Z,1019.52
2023-04-03T11:05:19.732Z,1019.49
2023-04-03T11:06:19.645Z,1019.55
2023-04-03T11:07:19.645Z,1019.47
2023-04-03T11:08:19.704Z,1019.50
2023-04-03T11:09:19.626Z,1019.51
2023-04-03T11:10:19.636Z,1019.54
2023-04-03T11:11:19.604Z,1019.51
2023-04-03T11:12:19.635Z,1019.52
2023-04-03T11:13:20.008Z,1019.51
2023-04-03T11:14:19.581Z,1019.50
2023-04-03T11:15:19.624Z,1019.51
2023-04-03T11:16:19.576Z,1019.50
2023-04-03T11:17:19.595Z,1019.43
2023-04-03T11:18:19.531Z,1019.39
2023-04-03T11:19:19.528Z,1019.44
2023-04-03T11:20:19.536Z,1019.46
2023-04-03T11:21:19.509Z,1019.40
2023-04-03T11:22:19.508Z,1019.41
2023-04-03T11:23:19.508Z,1019.30
2023-04-03T11:24:19.473Z,1019.39
2023-04-03T11:25:19.491Z,1019.38
2023-04-03T11:26:19.478Z,1019.38
2023-04-03T11:27:19.462Z,1019.43
2023-04-03T11:28:19.421Z,1019.33
2023-04-03T11:29:34.409Z,1019.36
2023-04-03T11:30:19.504Z,1019.33
2023-04-03T11:31:19.446Z,1019.42
2023-04-03T11:32:19.407Z,1019.35
2023-04-03T11:33:19.376Z,1019.34
2023-04-03T11:34:19.374Z,1019.32
2023-04-03T11:35:19.392Z,1019.31
2023-04-03T11:37:19.337Z,1019.32
2023-04-03T11:38:19.411Z,1019.28
2023-04-03T11:39:19.359Z,1019.35
2023-04-03T11:40:19.347Z,1019.29
2023-04-03T11:41:19.302Z,1019.35
2023-04-03T11:42:19.348Z,1019.23
2023-04-03T11:43:19.313Z,1019.20
2023-04-03T11:44:19.272Z,1019.22
2023-04-03T11:45:19.292Z,1019.18
2023-04-03T11:46:19.277Z,1019.22
2023-04-03T11:47:19.234Z,1019.22
2023-04-03T11:48:24.439Z,1019.27
2023-04-03T11:49:19.219Z,1019.24
2023-04-03T11:50:19.209Z,1019.22
2023-04-03T11:51:19.245Z,1019.20
2023-04-03T11:52:19.205Z,1019.28
2023-04-03T11:53:19.200Z,1019.22
2023-04-03T11:54:19.154Z,1019.22
2023-04-03T11:55:19.152Z,1019.20
2023-04-03T11:56:19.166Z,1019.15
2023-04-03T11:57:19.149Z,1019.15
2023-04-03T11:58:19.137Z,1019.15
2023-04-03T11:59:19.123Z,1019.15
2023-04-03T12:00:19.096Z,1019.17
2023-04-03T12:01:19.116Z,1019.19
2023-04-03T12:02:19.106Z,1019.25
2023-04-03T12:03:19.174Z,1019.19
2023-04-03T12:04:19.168Z,1019.16
2023-04-03T12:05:19.066Z,1019.21
2023-04-03T12:06:19.084Z,1019.09
2023-04-03T12:07:19.096Z,1019.11